sensor_id;sensor_type;location;lat;lon;timestamp;P1;durP1;ratioP1;P2;durP2;ratioP2
29788;SDS011;64899;42.660;23.268;2022-12-29T00:01:48;70.75;;;40.30;;
29788;SDS011;64899;42.660;23.268;2022-12-29T00:04:14;66.53;;;40.50;;
29788;SDS011;64899;42.660;23.268;2022-12-29T00:06:40;65.45;;;39.15;;
29788;SDS011;64899;42.660;23.268;2022-12-29T00:09:06;64.75;;;38.15;;
29788;SDS011;64899;42.660;23.268;2022-12-29T00:11:31;64.10;;;38.45;;
29788;SDS011;64899;42.660;23.268;2022-12-29T00:13:56;64.70;;;38.15;;
29788;SDS011;64899;42.660;23.268;2022-12-29T00:16:41;64.35;;;35.85;;
29788;SDS011;64899;42.660;23.268;2022-12-29T00:19:08;61.03;;;36.30;;
29788;SDS011;64899;42.660;23.268;2022-12-29T00:21:53;63.28;;;36.40;;
29788;SDS011;64899;42.660;23.268;2022-12-29T00:24:37;60.58;;;34.90;;
29788;SDS011;64899;42.660;23.268;2022-12-29T00:27:21;55.83;;;34.50;;
29788;SDS011;64899;42.660;23.268;2022-12-29T00:30:09;63.20;;;35.72;;
29788;SDS011;64899;42.660;23.268;2022-12-29T00:32:54;58.33;;;34.47;;
29788;SDS011;64899;42.660;23.268;2022-12-29T00:35:39;55.58;;;34.80;;
29788;SDS011;64899;42.660;23.268;2022-12-29T00:38:26;61.08;;;36.30;;
29788;SDS011;64899;42.660;23.268;2022-12-29T00:41:10;54.58;;;33.65;;
29788;SDS011;64899;42.660;23.268;2022-12-29T00:43:54;69.15;;;38.35;;
29788;SDS011;64899;42.660;23.268;2022-12-29T00:46:34;64.00;;;39.08;;
29788;SDS011;64899;42.660;23.268;2022-12-29T00:49:05;69.65;;;40.60;;
29788;SDS011;64899;42.660;23.268;2022-12-29T00:51:50;67.03;;;40.30;;
29788;SDS011;64899;42.660;23.268;2022-12-29T00:54:16;74.63;;;42.13;;
29788;SDS011;64899;42.660;23.268;2022-12-29T00:56:41;88.55;;;49.78;;
29788;SDS011;64899;42.660;23.268;2022-12-29T00:59:08;82.85;;;49.15;;
29788;SDS011;64899;42.660;23.268;2022-12-29T01:01:34;85.60;;;51.45;;
29788;SDS011;64899;42.660;23.268;2022-12-29T01:04:01;84.68;;;49.33;;
29788;SDS011;64899;42.660;23.268;2022-12-29T01:06:26;84.70;;;50.53;;
29788;SDS011;64899;42.660;23.268;2022-12-29T01:08:51;80.07;;;48.20;;
29788;SDS011;64899;42.660;23.268;2022-12-29T01:11:36;74.50;;;45.20;;
29788;SDS011;64899;42.660;23.268;2022-12-29T01:14:01;74.97;;;43.83;;
29788;SDS011;64899;42.660;23.268;2022-12-29T01:16:27;70.07;;;40.90;;
29788;SDS011;64899;42.660;23.268;2022-12-29T01:18:52;66.38;;;40.35;;
29788;SDS011;64899;42.660;23.268;2022-12-29T01:21:18;61.78;;;37.88;;
29788;SDS011;64899;42.660;23.268;2022-12-29T01:23:43;61.45;;;38.05;;
29788;SDS011;64899;42.660;23.268;2022-12-29T01:26:12;64.07;;;37.17;;
29788;SDS011;64899;42.660;23.268;2022-12-29T01:28:39;64.43;;;38.25;;
29788;SDS011;64899;42.660;23.268;2022-12-29T01:31:05;61.97;;;36.22;;
29788;SDS011;64899;42.660;23.268;2022-12-29T01:33:31;63.47;;;35.60;;
29788;SDS011;64899;42.660;23.268;2022-12-29T01:36:07;56.15;;;34.33;;
29788;SDS011;64899;42.660;23.268;2022-12-29T01:38:34;59.65;;;34.55;;
29788;SDS011;64899;42.660;23.268;2022-12-29T01:41:00;58.67;;;34.22;;
29788;SDS011;64899;42.660;23.268;2022-12-29T01:49:19;53.80;;;33.45;;
29788;SDS011;64899;42.660;23.268;2022-12-29T01:51:50;56.05;;;33.03;;
29788;SDS011;64899;42.660;23.268;2022-12-29T01:56:51;55.10;;;33.40;;
29788;SDS011;64899;42.660;23.268;2022-12-29T01:59:18;54.78;;;33.65;;
29788;SDS011;64899;42.660;23.268;2022-12-29T02:01:47;56.28;;;34.10;;
29788;SDS011;64899;42.660;23.268;2022-12-29T02:04:13;50.65;;;32.47;;
29788;SDS011;64899;42.660;23.268;2022-12-29T02:06:47;56.38;;;34.45;;
29788;SDS011;64899;42.660;23.268;2022-12-29T02:09:15;50.70;;;32.42;;
29788;SDS011;64899;42.660;23.268;2022-12-29T02:11:40;56.97;;;32.90;;
29788;SDS011;64899;42.660;23.268;2022-12-29T02:14:09;60.42;;;34.22;;
29788;SDS011;64899;42.660;23.268;2022-12-29T02:16:40;59.40;;;34.45;;
29788;SDS011;64899;42.660;23.268;2022-12-29T02:27:55;50.03;;;30.58;;
29788;SDS011;64899;42.660;23.268;2022-12-29T02:33:13;50.00;;;29.85;;
29788;SDS011;64899;42.660;23.268;2022-12-29T02:36:15;48.20;;;30.80;;
29788;SDS011;64899;42.660;23.268;2022-12-29T02:46:38;50.75;;;28.77;;
29788;SDS011;64899;42.660;23.268;2022-12-29T02:49:17;46.92;;;27.83;;
29788;SDS011;64899;42.660;23.268;2022-12-29T02:51:54;48.47;;;28.63;;
29788;SDS011;64899;42.660;23.268;2022-12-29T02:54:23;48.97;;;28.80;;
29788;SDS011;64899;42.660;23.268;2022-12-29T02:57:29;49.08;;;29.77;;
29788;SDS011;64899;42.660;23.268;2022-12-29T03:05:22;47.53;;;30.13;;
29788;SDS011;64899;42.660;23.268;2022-12-29T03:17:16;56.88;;;35.38;;
29788;SDS011;64899;42.660;23.268;2022-12-29T03:20:31;55.50;;;33.75;;
29788;SDS011;64899;42.660;23.268;2022-12-29T03:25:33;54.65;;;33.95;;
29788;SDS011;64899;42.660;23.268;2022-12-29T03:28:06;59.72;;;36.15;;
29788;SDS011;64899;42.660;23.268;2022-12-29T03:30:34;57.47;;;33.90;;
29788;SDS011;64899;42.660;23.268;2022-12-29T03:33:05;63.80;;;37.28;;
29788;SDS011;64899;42.660;23.268;2022-12-29T03:35:34;61.83;;;37.75;;
29788;SDS011;64899;42.660;23.268;2022-12-29T03:38:06;58.70;;;36.22;;
29788;SDS011;64899;42.660;23.268;2022-12-29T03:40:36;62.15;;;35.88;;
29788;SDS011;64899;42.660;23.268;2022-12-29T03:43:03;56.45;;;35.13;;
29788;SDS011;64899;42.660;23.268;2022-12-29T03:45:29;58.15;;;37.08;;
29788;SDS011;64899;42.660;23.268;2022-12-29T03:47:55;62.63;;;35.97;;
29788;SDS011;64899;42.660;23.268;2022-12-29T03:50:20;64.40;;;38.67;;
29788;SDS011;64899;42.660;23.268;2022-12-29T03:52:45;62.65;;;38.15;;
29788;SDS011;64899;42.660;23.268;2022-12-29T03:55:11;64.15;;;37.67;;
29788;SDS011;64899;42.660;23.268;2022-12-29T03:57:36;62.60;;;36.47;;
29788;SDS011;64899;42.660;23.268;2022-12-29T04:00:03;61.38;;;38.45;;
29788;SDS011;64899;42.660;23.268;2022-12-29T04:02:29;63.15;;;39.45;;
29788;SDS011;64899;42.660;23.268;2022-12-29T04:04:55;70.32;;;41.72;;
29788;SDS011;64899;42.660;23.268;2022-12-29T04:07:20;59.90;;;39.28;;
29788;SDS011;64899;42.660;23.268;2022-12-29T04:09:45;67.50;;;39.97;;
29788;SDS011;64899;42.660;23.268;2022-12-29T04:12:11;66.93;;;41.45;;
29788;SDS011;64899;42.660;23.268;2022-12-29T04:14:36;72.53;;;43.45;;
29788;SDS011;64899;42.660;23.268;2022-12-29T04:17:01;73.82;;;44.63;;
29788;SDS011;64899;42.660;23.268;2022-12-29T04:19:27;73.63;;;43.75;;
29788;SDS011;64899;42.660;23.268;2022-12-29T04:21:52;74.75;;;44.78;;
29788;SDS011;64899;42.660;23.268;2022-12-29T04:24:17;70.10;;;43.22;;
29788;SDS011;64899;42.660;23.268;2022-12-29T04:26:43;78.65;;;46.08;;
29788;SDS011;64899;42.660;23.268;2022-12-29T04:29:08;77.65;;;45.58;;
29788;SDS011;64899;42.660;23.268;2022-12-29T04:31:34;79.40;;;43.10;;
29788;SDS011;64899;42.660;23.268;2022-12-29T04:33:59;75.03;;;42.20;;
29788;SDS011;64899;42.660;23.268;2022-12-29T04:36:25;72.00;;;44.25;;
29788;SDS011;64899;42.660;23.268;2022-12-29T04:38:50;72.63;;;42.53;;
29788;SDS011;64899;42.660;23.268;2022-12-29T04:41:16;70.05;;;43.10;;
29788;SDS011;64899;42.660;23.268;2022-12-29T04:43:41;71.90;;;44.55;;
29788;SDS011;64899;42.660;23.268;2022-12-29T04:46:07;70.45;;;42.22;;
29788;SDS011;64899;42.660;23.268;2022-12-29T04:48:32;70.28;;;41.38;;
29788;SDS011;64899;42.660;23.268;2022-12-29T04:50:57;72.78;;;43.15;;
29788;SDS011;64899;42.660;23.268;2022-12-29T04:53:23;73.57;;;43.38;;
29788;SDS011;64899;42.660;23.268;2022-12-29T04:55:52;69.10;;;41.58;;
29788;SDS011;64899;42.660;23.268;2022-12-29T04:58:18;69.57;;;42.85;;
29788;SDS011;64899;42.660;23.268;2022-12-29T05:00:44;65.88;;;41.53;;
29788;SDS011;64899;42.660;23.268;2022-12-29T05:03:09;64.07;;;40.65;;
29788;SDS011;64899;42.660;23.268;2022-12-29T05:05:35;65.20;;;40.95;;
29788;SDS011;64899;42.660;23.268;2022-12-29T05:08:00;67.80;;;39.75;;
29788;SDS011;64899;42.660;23.268;2022-12-29T05:10:26;62.92;;;38.35;;
29788;SDS011;64899;42.660;23.268;2022-12-29T05:12:51;61.45;;;38.05;;
29788;SDS011;64899;42.660;23.268;2022-12-29T05:15:17;62.78;;;39.10;;
29788;SDS011;64899;42.660;23.268;2022-12-29T05:17:42;60.55;;;38.00;;
29788;SDS011;64899;42.660;23.268;2022-12-29T05:20:08;61.17;;;37.83;;
29788;SDS011;64899;42.660;23.268;2022-12-29T05:22:33;67.75;;;38.67;;
29788;SDS011;64899;42.660;23.268;2022-12-29T05:24:59;59.00;;;37.63;;
29788;SDS011;64899;42.660;23.268;2022-12-29T05:27:24;61.80;;;37.92;;
29788;SDS011;64899;42.660;23.268;2022-12-29T05:29:50;62.25;;;36.17;;
29788;SDS011;64899;42.660;23.268;2022-12-29T05:32:15;60.15;;;36.47;;
29788;SDS011;64899;42.660;23.268;2022-12-29T05:34:40;58.13;;;35.83;;
29788;SDS011;64899;42.660;23.268;2022-12-29T05:37:06;56.22;;;35.13;;
29788;SDS011;64899;42.660;23.268;2022-12-29T05:39:31;60.35;;;36.38;;
29788;SDS011;64899;42.660;23.268;2022-12-29T05:41:57;63.45;;;37.45;;
29788;SDS011;64899;42.660;23.268;2022-12-29T05:44:22;66.10;;;38.65;;
29788;SDS011;64899;42.660;23.268;2022-12-29T05:46:48;58.58;;;37.10;;
29788;SDS011;64899;42.660;23.268;2022-12-29T05:49:13;63.30;;;39.15;;
29788;SDS011;64899;42.660;23.268;2022-12-29T05:51:38;62.47;;;36.80;;
29788;SDS011;64899;42.660;23.268;2022-12-29T05:54:04;56.85;;;36.03;;
29788;SDS011;64899;42.660;23.268;2022-12-29T05:56:29;57.17;;;36.25;;
29788;SDS011;64899;42.660;23.268;2022-12-29T05:58:55;57.60;;;35.58;;
29788;SDS011;64899;42.660;23.268;2022-12-29T06:01:20;65.78;;;38.17;;
29788;SDS011;64899;42.660;23.268;2022-12-29T06:03:45;61.90;;;36.88;;
29788;SDS011;64899;42.660;23.268;2022-12-29T06:06:11;58.60;;;35.63;;
29788;SDS011;64899;42.660;23.268;2022-12-29T06:08:36;61.20;;;36.55;;
29788;SDS011;64899;42.660;23.268;2022-12-29T06:11:02;59.95;;;36.53;;
29788;SDS011;64899;42.660;23.268;2022-12-29T06:13:27;56.45;;;34.53;;
29788;SDS011;64899;42.660;23.268;2022-12-29T06:15:52;59.92;;;35.65;;
29788;SDS011;64899;42.660;23.268;2022-12-29T06:18:18;57.15;;;33.65;;
29788;SDS011;64899;42.660;23.268;2022-12-29T06:20:43;54.65;;;33.97;;
29788;SDS011;64899;42.660;23.268;2022-12-29T06:23:09;58.97;;;34.97;;
29788;SDS011;64899;42.660;23.268;2022-12-29T06:25:34;56.15;;;33.83;;
29788;SDS011;64899;42.660;23.268;2022-12-29T06:28:01;57.85;;;34.65;;
29788;SDS011;64899;42.660;23.268;2022-12-29T06:30:27;57.17;;;34.35;;
29788;SDS011;64899;42.660;23.268;2022-12-29T06:32:52;62.38;;;34.42;;
29788;SDS011;64899;42.660;23.268;2022-12-29T06:35:19;55.47;;;34.92;;
29788;SDS011;64899;42.660;23.268;2022-12-29T06:37:44;52.83;;;33.80;;
29788;SDS011;64899;42.660;23.268;2022-12-29T06:40:10;59.47;;;32.78;;
29788;SDS011;64899;42.660;23.268;2022-12-29T06:42:36;57.60;;;33.78;;
29788;SDS011;64899;42.660;23.268;2022-12-29T06:45:02;56.38;;;34.97;;
29788;SDS011;64899;42.660;23.268;2022-12-29T06:47:27;56.45;;;35.88;;
29788;SDS011;64899;42.660;23.268;2022-12-29T06:49:53;58.03;;;34.28;;
29788;SDS011;64899;42.660;23.268;2022-12-29T06:52:18;57.63;;;35.13;;
29788;SDS011;64899;42.660;23.268;2022-12-29T06:54:44;60.55;;;35.47;;
29788;SDS011;64899;42.660;23.268;2022-12-29T06:57:09;61.80;;;36.60;;
29788;SDS011;64899;42.660;23.268;2022-12-29T06:59:35;64.20;;;36.92;;
29788;SDS011;64899;42.660;23.268;2022-12-29T07:02:00;56.15;;;35.00;;
29788;SDS011;64899;42.660;23.268;2022-12-29T07:04:27;55.40;;;34.15;;
29788;SDS011;64899;42.660;23.268;2022-12-29T07:06:52;55.67;;;34.63;;
29788;SDS011;64899;42.660;23.268;2022-12-29T07:09:18;55.30;;;34.50;;
29788;SDS011;64899;42.660;23.268;2022-12-29T07:11:44;57.25;;;35.10;;
29788;SDS011;64899;42.660;23.268;2022-12-29T07:14:10;51.92;;;32.58;;
29788;SDS011;64899;42.660;23.268;2022-12-29T07:16:36;52.90;;;32.47;;
29788;SDS011;64899;42.660;23.268;2022-12-29T07:19:02;52.22;;;32.30;;
29788;SDS011;64899;42.660;23.268;2022-12-29T07:21:27;52.00;;;31.83;;
29788;SDS011;64899;42.660;23.268;2022-12-29T07:23:53;51.15;;;30.90;;
29788;SDS011;64899;42.660;23.268;2022-12-29T07:26:19;50.47;;;30.25;;
29788;SDS011;64899;42.660;23.268;2022-12-29T07:28:44;48.72;;;30.50;;
29788;SDS011;64899;42.660;23.268;2022-12-29T07:31:17;49.15;;;29.45;;
29788;SDS011;64899;42.660;23.268;2022-12-29T07:33:45;52.75;;;30.55;;
29788;SDS011;64899;42.660;23.268;2022-12-29T07:36:10;49.55;;;29.85;;
29788;SDS011;64899;42.660;23.268;2022-12-29T07:38:36;48.40;;;29.33;;
29788;SDS011;64899;42.660;23.268;2022-12-29T07:41:02;50.10;;;30.48;;
29788;SDS011;64899;42.660;23.268;2022-12-29T07:43:27;46.60;;;28.88;;
29788;SDS011;64899;42.660;23.268;2022-12-29T07:45:53;47.70;;;30.27;;
29788;SDS011;64899;42.660;23.268;2022-12-29T07:48:18;45.38;;;28.77;;
29788;SDS011;64899;42.660;23.268;2022-12-29T07:50:43;49.55;;;29.98;;
29788;SDS011;64899;42.660;23.268;2022-12-29T07:53:09;43.20;;;28.70;;
29788;SDS011;64899;42.660;23.268;2022-12-29T07:55:34;47.60;;;29.85;;
29788;SDS011;64899;42.660;23.268;2022-12-29T07:58:00;47.70;;;28.33;;
29788;SDS011;64899;42.660;23.268;2022-12-29T08:00:25;47.28;;;28.20;;
29788;SDS011;64899;42.660;23.268;2022-12-29T08:02:51;42.25;;;27.70;;
29788;SDS011;64899;42.660;23.268;2022-12-29T08:05:16;46.47;;;27.77;;
29788;SDS011;64899;42.660;23.268;2022-12-29T08:07:42;48.75;;;28.83;;
29788;SDS011;64899;42.660;23.268;2022-12-29T08:10:09;46.25;;;27.08;;
29788;SDS011;64899;42.660;23.268;2022-12-29T08:12:34;42.38;;;27.15;;
29788;SDS011;64899;42.660;23.268;2022-12-29T08:14:59;43.40;;;26.52;;
29788;SDS011;64899;42.660;23.268;2022-12-29T08:17:25;41.97;;;25.58;;
29788;SDS011;64899;42.660;23.268;2022-12-29T08:19:50;41.28;;;27.00;;
29788;SDS011;64899;42.660;23.268;2022-12-29T08:22:15;42.58;;;26.58;;
29788;SDS011;64899;42.660;23.268;2022-12-29T08:24:41;46.65;;;28.02;;
29788;SDS011;64899;42.660;23.268;2022-12-29T08:27:06;44.67;;;27.45;;
29788;SDS011;64899;42.660;23.268;2022-12-29T08:29:31;42.88;;;28.70;;
29788;SDS011;64899;42.660;23.268;2022-12-29T08:31:57;43.55;;;27.25;;
29788;SDS011;64899;42.660;23.268;2022-12-29T08:34:22;44.05;;;27.65;;
29788;SDS011;64899;42.660;23.268;2022-12-29T08:36:48;49.00;;;28.30;;
29788;SDS011;64899;42.660;23.268;2022-12-29T08:39:13;43.67;;;27.23;;
29788;SDS011;64899;42.660;23.268;2022-12-29T08:41:39;40.38;;;26.42;;
29788;SDS011;64899;42.660;23.268;2022-12-29T08:44:04;44.97;;;28.02;;
29788;SDS011;64899;42.660;23.268;2022-12-29T08:46:29;40.80;;;26.25;;
29788;SDS011;64899;42.660;23.268;2022-12-29T08:48:55;42.95;;;25.48;;
29788;SDS011;64899;42.660;23.268;2022-12-29T08:51:20;42.28;;;24.92;;
29788;SDS011;64899;42.660;23.268;2022-12-29T08:53:46;49.67;;;24.65;;
29788;SDS011;64899;42.660;23.268;2022-12-29T08:56:11;38.42;;;25.10;;
29788;SDS011;64899;42.660;23.268;2022-12-29T08:58:37;42.22;;;24.95;;
29788;SDS011;64899;42.660;23.268;2022-12-29T09:01:02;42.45;;;25.58;;
29788;SDS011;64899;42.660;23.268;2022-12-29T09:03:28;38.28;;;23.90;;
29788;SDS011;64899;42.660;23.268;2022-12-29T09:05:53;37.60;;;24.75;;
29788;SDS011;64899;42.660;23.268;2022-12-29T09:08:19;37.15;;;24.38;;
29788;SDS011;64899;42.660;23.268;2022-12-29T09:10:45;39.45;;;25.45;;
29788;SDS011;64899;42.660;23.268;2022-12-29T09:13:12;35.85;;;23.67;;
29788;SDS011;64899;42.660;23.268;2022-12-29T09:15:38;40.55;;;23.80;;
29788;SDS011;64899;42.660;23.268;2022-12-29T09:18:04;36.97;;;22.75;;
29788;SDS011;64899;42.660;23.268;2022-12-29T09:20:30;39.80;;;24.60;;
29788;SDS011;64899;42.660;23.268;2022-12-29T09:22:56;39.20;;;24.00;;
29788;SDS011;64899;42.660;23.268;2022-12-29T09:25:21;33.60;;;23.13;;
29788;SDS011;64899;42.660;23.268;2022-12-29T09:27:49;36.78;;;22.88;;
29788;SDS011;64899;42.660;23.268;2022-12-29T09:30:15;37.33;;;22.40;;
29788;SDS011;64899;42.660;23.268;2022-12-29T09:32:40;36.05;;;21.60;;
29788;SDS011;64899;42.660;23.268;2022-12-29T09:35:06;38.78;;;22.17;;
29788;SDS011;64899;42.660;23.268;2022-12-29T09:37:32;35.38;;;23.23;;
29788;SDS011;64899;42.660;23.268;2022-12-29T09:39:57;35.45;;;22.08;;
29788;SDS011;64899;42.660;23.268;2022-12-29T09:42:34;36.58;;;22.25;;
29788;SDS011;64899;42.660;23.268;2022-12-29T09:45:08;32.13;;;20.90;;
29788;SDS011;64899;42.660;23.268;2022-12-29T09:47:38;32.90;;;21.45;;
29788;SDS011;64899;42.660;23.268;2022-12-29T09:50:15;31.63;;;20.77;;
29788;SDS011;64899;42.660;23.268;2022-12-29T09:55:35;34.40;;;22.20;;
29788;SDS011;64899;42.660;23.268;2022-12-29T09:58:26;33.10;;;21.70;;
29788;SDS011;64899;42.660;23.268;2022-12-29T10:00:56;32.67;;;21.58;;
29788;SDS011;64899;42.660;23.268;2022-12-29T10:03:32;35.15;;;21.33;;
29788;SDS011;64899;42.660;23.268;2022-12-29T10:09:16;31.88;;;21.50;;
29788;SDS011;64899;42.660;23.268;2022-12-29T10:17:51;33.22;;;21.30;;
29788;SDS011;64899;42.660;23.268;2022-12-29T10:23:06;33.83;;;22.10;;
29788;SDS011;64899;42.660;23.268;2022-12-29T10:25:53;33.13;;;21.35;;
29788;SDS011;64899;42.660;23.268;2022-12-29T10:28:37;34.75;;;20.75;;
29788;SDS011;64899;42.660;23.268;2022-12-29T10:31:17;32.38;;;21.80;;
29788;SDS011;64899;42.660;23.268;2022-12-29T10:33:46;33.42;;;22.90;;
29788;SDS011;64899;42.660;23.268;2022-12-29T10:36:18;35.03;;;23.63;;
29788;SDS011;64899;42.660;23.268;2022-12-29T10:41:32;29.95;;;21.50;;
29788;SDS011;64899;42.660;23.268;2022-12-29T10:44:03;34.28;;;21.85;;
29788;SDS011;64899;42.660;23.268;2022-12-29T10:46:30;30.20;;;20.75;;
29788;SDS011;64899;42.660;23.268;2022-12-29T10:48:58;36.58;;;22.85;;
29788;SDS011;64899;42.660;23.268;2022-12-29T10:51:25;32.40;;;22.25;;
29788;SDS011;64899;42.660;23.268;2022-12-29T10:53:53;37.00;;;24.63;;
29788;SDS011;64899;42.660;23.268;2022-12-29T10:59:05;40.38;;;26.33;;
29788;SDS011;64899;42.660;23.268;2022-12-29T11:01:57;35.95;;;25.55;;
29788;SDS011;64899;42.660;23.268;2022-12-29T11:07:12;32.47;;;24.88;;
29788;SDS011;64899;42.660;23.268;2022-12-29T11:09:39;34.65;;;24.83;;
29788;SDS011;64899;42.660;23.268;2022-12-29T11:12:18;32.38;;;24.05;;
29788;SDS011;64899;42.660;23.268;2022-12-29T11:14:44;39.00;;;25.55;;
29788;SDS011;64899;42.660;23.268;2022-12-29T11:17:11;36.75;;;24.58;;
29788;SDS011;64899;42.660;23.268;2022-12-29T11:19:40;35.45;;;24.15;;
29788;SDS011;64899;42.660;23.268;2022-12-29T11:22:21;32.70;;;24.27;;
29788;SDS011;64899;42.660;23.268;2022-12-29T11:24:49;39.83;;;24.67;;
29788;SDS011;64899;42.660;23.268;2022-12-29T11:29:45;28.95;;;22.42;;
29788;SDS011;64899;42.660;23.268;2022-12-29T11:32:32;31.40;;;22.00;;
29788;SDS011;64899;42.660;23.268;2022-12-29T11:34:57;29.20;;;22.35;;
29788;SDS011;64899;42.660;23.268;2022-12-29T11:37:30;29.80;;;22.80;;
29788;SDS011;64899;42.660;23.268;2022-12-29T11:42:47;30.55;;;21.90;;
29788;SDS011;64899;42.660;23.268;2022-12-29T11:45:19;29.42;;;23.63;;
29788;SDS011;64899;42.660;23.268;2022-12-29T11:47:52;29.00;;;20.95;;
29788;SDS011;64899;42.660;23.268;2022-12-29T11:50:20;30.08;;;20.80;;
29788;SDS011;64899;42.660;23.268;2022-12-29T11:52:48;28.38;;;19.83;;
29788;SDS011;64899;42.660;23.268;2022-12-29T11:55:20;23.38;;;19.08;;
29788;SDS011;64899;42.660;23.268;2022-12-29T11:57:47;22.15;;;18.20;;
29788;SDS011;64899;42.660;23.268;2022-12-29T12:00:18;25.48;;;19.48;;
29788;SDS011;64899;42.660;23.268;2022-12-29T12:08:09;26.73;;;18.95;;
29788;SDS011;64899;42.660;23.268;2022-12-29T12:10:44;24.75;;;18.52;;
29788;SDS011;64899;42.660;23.268;2022-12-29T12:16:27;28.00;;;19.83;;
29788;SDS011;64899;42.660;23.268;2022-12-29T12:19:02;28.08;;;19.63;;
29788;SDS011;64899;42.660;23.268;2022-12-29T12:32:16;25.27;;;19.73;;
29788;SDS011;64899;42.660;23.268;2022-12-29T12:34:44;31.77;;;20.15;;
29788;SDS011;64899;42.660;23.268;2022-12-29T12:45:27;28.35;;;20.33;;
29788;SDS011;64899;42.660;23.268;2022-12-29T13:03:56;33.83;;;20.55;;
29788;SDS011;64899;42.660;23.268;2022-12-29T13:06:52;37.58;;;20.38;;
29788;SDS011;64899;42.660;23.268;2022-12-29T13:12:15;29.58;;;19.60;;
29788;SDS011;64899;42.660;23.268;2022-12-29T13:17:28;31.17;;;18.23;;
29788;SDS011;64899;42.660;23.268;2022-12-29T13:22:59;29.08;;;18.85;;
29788;SDS011;64899;42.660;23.268;2022-12-29T13:28:31;30.65;;;19.23;;
29788;SDS011;64899;42.660;23.268;2022-12-29T13:33:41;28.58;;;16.88;;
29788;SDS011;64899;42.660;23.268;2022-12-29T13:39:01;24.77;;;16.95;;
29788;SDS011;64899;42.660;23.268;2022-12-29T13:41:32;25.08;;;17.13;;
29788;SDS011;64899;42.660;23.268;2022-12-29T13:44:09;31.55;;;18.15;;
29788;SDS011;64899;42.660;23.268;2022-12-29T13:46:42;25.30;;;17.63;;
29788;SDS011;64899;42.660;23.268;2022-12-29T13:49:18;31.90;;;18.67;;
29788;SDS011;64899;42.660;23.268;2022-12-29T13:51:56;26.48;;;18.35;;
29788;SDS011;64899;42.660;23.268;2022-12-29T13:59:40;27.05;;;17.85;;
29788;SDS011;64899;42.660;23.268;2022-12-29T14:02:21;31.60;;;19.48;;
29788;SDS011;64899;42.660;23.268;2022-12-29T14:05:34;35.40;;;18.73;;
29788;SDS011;64899;42.660;23.268;2022-12-29T14:07:46;29.98;;;19.23;;
29788;SDS011;64899;42.660;23.268;2022-12-29T14:10:35;30.15;;;19.00;;
29788;SDS011;64899;42.660;23.268;2022-12-29T14:13:16;36.75;;;20.27;;
29788;SDS011;64899;42.660;23.268;2022-12-29T14:15:52;33.22;;;20.17;;
29788;SDS011;64899;42.660;23.268;2022-12-29T14:18:20;36.70;;;21.27;;
29788;SDS011;64899;42.660;23.268;2022-12-29T14:20:58;31.00;;;19.13;;
29788;SDS011;64899;42.660;23.268;2022-12-29T14:23:44;30.38;;;19.60;;
29788;SDS011;64899;42.660;23.268;2022-12-29T14:28:42;32.80;;;19.63;;
29788;SDS011;64899;42.660;23.268;2022-12-29T14:33:40;38.22;;;21.58;;
29788;SDS011;64899;42.660;23.268;2022-12-29T14:36:26;36.05;;;21.27;;
29788;SDS011;64899;42.660;23.268;2022-12-29T14:38:58;38.67;;;22.58;;
29788;SDS011;64899;42.660;23.268;2022-12-29T14:41:26;41.10;;;22.20;;
29788;SDS011;64899;42.660;23.268;2022-12-29T14:43:55;42.13;;;23.13;;
29788;SDS011;64899;42.660;23.268;2022-12-29T14:46:24;36.80;;;22.20;;
29788;SDS011;64899;42.660;23.268;2022-12-29T14:48:54;39.78;;;22.65;;
29788;SDS011;64899;42.660;23.268;2022-12-29T14:51:42;46.47;;;24.30;;
29788;SDS011;64899;42.660;23.268;2022-12-29T14:57:19;53.08;;;30.38;;
29788;SDS011;64899;42.660;23.268;2022-12-29T15:00:01;56.42;;;30.75;;
29788;SDS011;64899;42.660;23.268;2022-12-29T15:02:39;52.00;;;33.28;;
29788;SDS011;64899;42.660;23.268;2022-12-29T15:05:14;55.70;;;34.00;;
29788;SDS011;64899;42.660;23.268;2022-12-29T15:07:50;70.50;;;42.63;;
29788;SDS011;64899;42.660;23.268;2022-12-29T15:10:15;70.85;;;41.40;;
29788;SDS011;64899;42.660;23.268;2022-12-29T15:12:43;78.10;;;45.63;;
29788;SDS011;64899;42.660;23.268;2022-12-29T15:15:25;78.65;;;46.80;;
29788;SDS011;64899;42.660;23.268;2022-12-29T15:17:52;80.80;;;48.40;;
29788;SDS011;64899;42.660;23.268;2022-12-29T15:22:55;89.13;;;51.58;;
29788;SDS011;64899;42.660;23.268;2022-12-29T15:27:50;79.28;;;46.33;;
29788;SDS011;64899;42.660;23.268;2022-12-29T15:30:17;74.57;;;44.60;;
29788;SDS011;64899;42.660;23.268;2022-12-29T15:32:43;85.65;;;47.92;;
29788;SDS011;64899;42.660;23.268;2022-12-29T15:35:22;97.07;;;52.63;;
29788;SDS011;64899;42.660;23.268;2022-12-29T15:37:49;80.60;;;46.97;;
29788;SDS011;64899;42.660;23.268;2022-12-29T15:40:25;78.28;;;44.70;;
29788;SDS011;64899;42.660;23.268;2022-12-29T15:45:49;83.50;;;46.92;;
29788;SDS011;64899;42.660;23.268;2022-12-29T15:48:19;83.88;;;46.55;;
29788;SDS011;64899;42.660;23.268;2022-12-29T15:50:46;91.18;;;46.47;;
29788;SDS011;64899;42.660;23.268;2022-12-29T15:53:12;82.03;;;46.55;;
29788;SDS011;64899;42.660;23.268;2022-12-29T15:55:59;84.47;;;45.45;;
29788;SDS011;64899;42.660;23.268;2022-12-29T15:58:28;71.53;;;44.25;;
29788;SDS011;64899;42.660;23.268;2022-12-29T16:00:58;77.90;;;42.67;;
29788;SDS011;64899;42.660;23.268;2022-12-29T16:03:25;80.78;;;42.95;;
29788;SDS011;64899;42.660;23.268;2022-12-29T16:06:09;75.55;;;43.70;;
29788;SDS011;64899;42.660;23.268;2022-12-29T16:08:37;76.70;;;43.30;;
29788;SDS011;64899;42.660;23.268;2022-12-29T16:11:17;73.50;;;44.17;;
29788;SDS011;64899;42.660;23.268;2022-12-29T16:13:43;101.03;;;50.90;;
29788;SDS011;64899;42.660;23.268;2022-12-29T16:16:16;85.95;;;45.22;;
29788;SDS011;64899;42.660;23.268;2022-12-29T16:18:46;133.52;;;63.13;;
29788;SDS011;64899;42.660;23.268;2022-12-29T16:21:15;112.63;;;56.40;;
29788;SDS011;64899;42.660;23.268;2022-12-29T16:23:46;94.07;;;50.45;;
29788;SDS011;64899;42.660;23.268;2022-12-29T16:26:15;80.30;;;44.13;;
29788;SDS011;64899;42.660;23.268;2022-12-29T16:28:42;84.20;;;43.65;;
29788;SDS011;64899;42.660;23.268;2022-12-29T16:31:20;86.38;;;47.97;;
29788;SDS011;64899;42.660;23.268;2022-12-29T16:33:49;85.30;;;47.08;;
29788;SDS011;64899;42.660;23.268;2022-12-29T16:41:40;80.60;;;47.35;;
29788;SDS011;64899;42.660;23.268;2022-12-29T16:44:12;86.05;;;47.28;;
29788;SDS011;64899;42.660;23.268;2022-12-29T16:46:57;99.18;;;51.80;;
29788;SDS011;64899;42.660;23.268;2022-12-29T16:49:27;108.93;;;54.25;;
29788;SDS011;64899;42.660;23.268;2022-12-29T16:51:53;147.43;;;71.78;;
29788;SDS011;64899;42.660;23.268;2022-12-29T16:54:23;129.10;;;66.45;;
29788;SDS011;64899;42.660;23.268;2022-12-29T16:56:50;135.05;;;68.55;;
29788;SDS011;64899;42.660;23.268;2022-12-29T17:01:54;147.10;;;76.10;;
29788;SDS011;64899;42.660;23.268;2022-12-29T17:04:20;131.68;;;68.18;;
29788;SDS011;64899;42.660;23.268;2022-12-29T17:06:45;101.55;;;60.00;;